Time;durP1;ratioP1;P1;durP2;ratioP2;P2;SDS_P1;SDS_P2;PMS_P1;PMS_P2;Temp;Humidity;BMP_temperature;BMP_pressure;BME280_temperature;BME280_humidity;BME280_pressure;Samples;Min_cycle;Max_cycle;Signal;HPM_P1;HPM_P2
2022/08/01 00:02:14;;;;;;;4.17;3.80;;;;;;;25.27;39.26;97481.66;5042298;28;20357;-73
2022/08/01 00:04:39;;;;;;;5.07;4.63;;;;;;;25.23;39.63;97485.88;5049486;28;20180;-73
2022/08/01 00:07:05;;;;;;;5.20;4.07;;;;;;;25.20;39.57;97486.38;5043015;28;20249;-73
2022/08/01 00:09:30;;;;;;;3.00;2.80;;;;;;;25.18;39.60;97493.00;5050888;28;20876;-74
2022/08/01 00:11:56;;;;;;;6.03;3.23;;;;;;;25.16;39.84;97485.19;5045336;28;20199;-73
2022/08/01 00:14:21;;;;;;;4.90;3.20;;;;;;;25.18;39.86;97488.47;5053292;28;20187;-73
2022/08/01 00:16:46;;;;;;;3.10;2.90;;;;;;;25.17;40.03;97483.31;5047819;28;20196;-73
2022/08/01 00:19:12;;;;;;;6.13;3.07;;;;;;;25.17;40.07;97486.84;5043180;28;20274;-73
2022/08/01 00:21:38;;;;;;;3.87;3.40;;;;;;;25.11;40.25;97487.78;5050207;28;20285;-73
2022/08/01 00:24:03;;;;;;;3.10;2.90;;;;;;;25.10;40.31;97486.97;5042783;28;20182;-72
2022/08/01 00:26:28;;;;;;;4.33;3.10;;;;;;;25.11;40.50;97493.16;5051604;28;20194;-73
2022/08/01 00:28:54;;;;;;;3.60;2.80;;;;;;;25.06;40.26;97490.38;5036591;28;20252;-74
2022/08/01 00:31:19;;;;;;;6.23;3.33;;;;;;;25.08;40.31;97498.97;5045610;28;20210;-74
2022/08/01 00:33:45;;;;;;;7.33;2.43;;;;;;;25.03;40.43;97501.56;5045909;28;20183;-73
2022/08/01 00:36:10;;;;;;;3.00;2.37;;;;;;;25.03;40.57;97504.25;5047515;28;20188;-73
2022/08/01 00:38:36;;;;;;;2.90;2.70;;;;;;;25.03;40.60;97502.38;5033673;28;20195;-72
2022/08/01 00:41:01;;;;;;;3.53;2.63;;;;;;;25.02;40.62;97502.63;5041541;28;20226;-72
2022/08/01 00:43:27;;;;;;;4.67;3.43;;;;;;;25.00;40.64;97510.91;5046531;28;20183;-74
2022/08/01 00:45:52;;;;;;;7.00;3.03;;;;;;;25.04;40.53;97504.00;5044524;28;20183;-73
2022/08/01 00:48:17;;;;;;;2.97;2.77;;;;;;;25.04;40.18;97508.56;5041393;28;20234;-73
2022/08/01 00:50:43;;;;;;;4.10;3.10;;;;;;;25.06;40.45;97504.59;5038909;28;20195;-73
2022/08/01 00:53:09;;;;;;;5.17;3.07;;;;;;;25.05;40.66;97504.84;5047019;28;20682;-74
2022/08/01 00:55:34;;;;;;;2.70;2.50;;;;;;;25.04;40.65;97500.53;5045753;28;20187;-72
2022/08/01 00:58:00;;;;;;;2.90;2.70;;;;;;;25.02;40.17;97502.63;5048126;28;20255;-74
2022/08/01 01:00:26;;;;;;;3.17;2.87;;;;;;;25.03;40.58;97506.94;5045664;28;20203;-73
2022/08/01 01:02:51;;;;;;;3.70;3.40;;;;;;;25.01;40.71;97501.81;5043734;28;20204;-72
2022/08/01 01:05:17;;;;;;;3.03;2.70;;;;;;;25.00;40.68;97502.88;5032667;28;20439;-74
2022/08/01 01:08:04;;;;;;;2.90;2.70;;;;;;;24.97;40.34;97508.69;5036862;28;20180;-73
2022/08/01 01:10:42;;;;;;;3.23;2.73;;;;;;;24.98;40.69;97500.41;5030552;28;20274;-73
2022/08/01 01:13:12;;;;;;;2.97;2.70;;;;;;;24.99;40.96;97504.72;5030774;28;20431;-74
2022/08/01 01:15:44;;;;;;;2.60;2.40;;;;;;;25.00;40.58;97506.34;5037292;28;20429;-74
2022/08/01 01:18:28;;;;;;;11.00;2.83;;;;;;;24.99;40.91;97512.78;5046758;28;20421;-74
2022/08/01 01:21:08;;;;;;;3.03;2.73;;;;;;;24.98;40.95;97518.38;5034226;28;20469;-73
2022/08/01 01:23:33;;;;;;;2.80;2.60;;;;;;;24.97;40.73;97517.53;5042044;28;20425;-74
2022/08/01 01:26:21;;;;;;;2.77;2.57;;;;;;;24.96;41.15;97515.91;5041690;28;20971;-73
2022/08/01 01:29:16;;;;;;;3.87;2.70;;;;;;;24.96;41.13;97512.44;5040613;28;20183;-74
2022/08/01 01:32:00;;;;;;;2.50;2.30;;;;;;;24.98;41.59;97518.38;5032636;28;20437;-73
2022/08/01 01:34:27;;;;;;;3.00;2.80;;;;;;;24.95;41.49;97519.66;5037951;28;20508;-73
2022/08/01 01:36:54;;;;;;;10.10;2.83;;;;;;;24.95;41.48;97511.59;5044456;28;21007;-73
2022/08/01 01:39:20;;;;;;;3.30;2.80;;;;;;;24.94;41.67;97514.53;5037940;28;20436;-74
2022/08/01 01:41:47;;;;;;;2.73;2.47;;;;;;;24.94;41.28;97514.53;5041638;28;20476;-73
2022/08/01 01:44:13;;;;;;;2.60;2.33;;;;;;;24.88;41.85;97510.94;5043313;28;20418;-73
2022/08/01 01:46:39;;;;;;;2.80;2.60;;;;;;;24.85;41.87;97516.78;5046691;28;20524;-73
2022/08/01 01:49:05;;;;;;;4.57;2.60;;;;;;;24.87;41.72;97520.03;5044228;28;20229;-72
2022/08/01 01:51:31;;;;;;;2.40;2.20;;;;;;;24.85;41.96;97519.44;5039866;28;20203;-74
2022/08/01 01:53:58;;;;;;;3.40;2.87;;;;;;;24.84;42.40;97515.97;5040107;28;20423;-74
2022/08/01 01:56:24;;;;;;;5.43;3.17;;;;;;;24.80;42.67;97519.34;5040810;28;20796;-74
2022/08/01 01:58:56;;;;;;;2.90;2.70;;;;;;;24.76;42.76;97523.56;5046196;28;21035;-76
2022/08/01 02:01:24;;;;;;;2.80;2.60;;;;;;;24.76;42.79;97512.84;5042892;28;20827;-74
2022/08/01 02:03:50;;;;;;;2.90;2.70;;;;;;;24.76;43.07;97512.84;5046671;28;20425;-74
2022/08/01 02:06:15;;;;;;;3.20;2.53;;;;;;;24.72;43.09;97515.19;5042952;28;20483;-74
2022/08/01 02:08:42;;;;;;;4.13;2.80;;;;;;;24.68;42.88;97512.13;5038819;28;20421;-74
2022/08/01 02:11:21;;;;;;;3.00;2.70;;;;;;;24.64;42.95;97519.00;5044669;28;20249;-74
2022/08/01 02:14:00;;;;;;;3.00;2.40;;;;;;;24.63;43.09;97514.69;5034512;28;20463;-74
2022/08/01 02:16:29;;;;;;;3.97;2.67;;;;;;;24.60;43.10;97514.34;5043037;28;20430;-74
2022/08/01 02:18:55;;;;;;;3.17;2.57;;;;;;;24.53;43.50;97514.47;5034123;28;20422;-73
2022/08/01 02:21:27;;;;;;;2.90;2.60;;;;;;;24.41;43.61;97511.81;5046371;28;20519;-75
2022/08/01 02:23:54;;;;;;;4.27;2.80;;;;;;;24.38;43.52;97513.09;5041696;28;20183;-74
2022/08/01 02:26:21;;;;;;;2.60;2.40;;;;;;;24.41;43.60;97522.50;5038938;28;20426;-74
2022/08/01 02:28:53;;;;;;;2.40;2.20;;;;;;;24.38;43.83;97515.78;5032617;28;20431;-73
2022/08/01 02:31:21;;;;;;;2.50;2.30;;;;;;;24.34;43.77;97517.28;5039347;28;20438;-73
2022/08/01 02:33:55;;;;;;;2.80;2.60;;;;;;;24.35;44.03;97518.09;5039250;28;20927;-74
2022/08/01 02:36:21;;;;;;;2.90;2.70;;;;;;;24.33;43.81;97526.34;5040282;28;20414;-73
2022/08/01 02:38:47;;;;;;;3.67;2.73;;;;;;;24.32;43.98;97524.72;5044512;28;20534;-73
2022/08/01 02:41:19;;;;;;;2.70;2.50;;;;;;;24.28;44.33;97534.28;5029824;28;20462;-73
2022/08/01 02:43:48;;;;;;;2.93;2.70;;;;;;;24.26;44.51;97532.91;5048828;28;20269;-73
2022/08/01 02:46:20;;;;;;;3.20;3.00;;;;;;;24.22;44.72;97527.19;5045072;28;20422;-73
2022/08/01 02:48:45;;;;;;;3.50;3.20;;;;;;;24.16;44.62;97528.13;5044987;28;20425;-73
2022/08/01 02:51:11;;;;;;;3.00;2.80;;;;;;;24.12;44.74;97540.34;5045518;28;20450;-74
2022/08/01 02:53:39;;;;;;;4.83;2.97;;;;;;;24.03;45.23;97543.34;5045608;28;20172;-74
2022/08/01 02:56:05;;;;;;;5.93;2.60;;;;;;;24.01;44.97;97534.75;5037252;28;20422;-72
2022/08/01 02:58:32;;;;;;;3.90;3.20;;;;;;;23.96;45.31;97541.84;5038228;28;20479;-74
2022/08/01 03:00:58;;;;;;;3.20;2.90;;;;;;;23.93;45.33;97540.41;5049744;28;20472;-73
2022/08/01 03:03:24;;;;;;;3.63;2.63;;;;;;;23.86;45.56;97542.34;5039276;28;20491;-74
2022/08/01 03:05:49;;;;;;;2.83;2.63;;;;;;;23.82;45.73;97539.34;5036588;28;20430;-73
2022/08/01 03:08:16;;;;;;;2.90;2.70;;;;;;;23.80;45.69;97545.97;5045417;28;20189;-73
2022/08/01 03:10:43;;;;;;;6.37;2.63;;;;;;;23.80;45.60;97532.59;5046239;28;20202;-73
2022/08/01 03:13:09;;;;;;;7.63;2.87;;;;;;;23.77;45.86;97534.69;5046604;28;20422;-74
2022/08/01 03:15:37;;;;;;;3.63;2.77;;;;;;;23.77;45.88;97540.03;5042655;28;20508;-74
2022/08/01 03:18:05;;;;;;;3.37;3.07;;;;;;;23.78;45.91;97541.66;5034466;28;20435;-74
2022/08/01 03:20:34;;;;;;;3.40;2.60;;;;;;;23.72;46.11;97542.56;5022124;28;20496;-74
2022/08/01 03:23:01;;;;;;;7.67;2.90;;;;;;;23.70;46.22;97533.94;5048477;28;20425;-75
2022/08/01 03:25:28;;;;;;;3.20;2.60;;;;;;;23.67;46.36;97542.44;5023900;28;20439;-73
2022/08/01 03:27:56;;;;;;;4.63;2.60;;;;;;;23.64;46.50;97542.91;5015630;28;20949;-74
2022/08/01 03:30:26;;;;;;;3.80;2.90;;;;;;;23.60;46.67;97541.72;5031216;28;20447;-74
2022/08/01 03:32:52;;;;;;;5.00;2.70;;;;;;;23.55;46.73;97545.06;5045435;28;21218;-74
2022/08/01 03:35:18;;;;;;;3.03;2.53;;;;;;;23.54;46.72;97538.09;5046993;28;20426;-74
2022/08/01 03:37:48;;;;;;;3.17;2.87;;;;;;;23.52;46.67;97540.19;5032541;28;20198;-74
2022/08/01 03:40:21;;;;;;;3.00;2.80;;;;;;;23.47;46.98;97540.88;5038854;28;22204;-74
2022/08/01 03:42:48;;;;;;;5.63;2.97;;;;;;;23.46;47.06;97543.78;5038866;28;20513;-74
2022/08/01 03:45:30;;;;;;;4.50;3.00;;;;;;;23.37;47.39;97551.28;5032626;28;20468;-74
2022/08/01 03:48:00;;;;;;;4.03;3.07;;;;;;;23.36;47.50;97544.31;5029825;28;20443;-72
2022/08/01 03:50:27;;;;;;;5.23;2.53;;;;;;;23.42;47.38;97546.09;5044115;28;20441;-72
2022/08/01 03:52:53;;;;;;;2.90;2.70;;;;;;;23.48;47.34;97547.03;5032329;28;20427;-73
2022/08/01 03:55:20;;;;;;;3.30;3.00;;;;;;;23.52;47.14;97547.41;5030288;28;20426;-73
2022/08/01 03:57:46;;;;;;;2.87;2.67;;;;;;;23.52;47.26;97542.06;5035425;28;20426;-73
2022/08/01 04:00:12;;;;;;;3.10;2.77;;;;;;;23.50;47.48;97538.78;5037200;28;20438;-74
2022/08/01 04:02:38;;;;;;;5.20;3.07;;;;;;;23.51;47.53;97538.53;5042804;28;20433;-73
2022/08/01 04:05:04;;;;;;;4.67;2.40;;;;;;;23.47;47.91;97540.06;5032869;28;20195;-72
2022/08/01 04:07:32;;;;;;;3.93;2.53;;;;;;;23.45;47.76;97537.59;5042763;28;20425;-73
2022/08/01 04:09:57;;;;;;;5.73;2.33;;;;;;;23.48;47.86;97541.69;5037434;28;20433;-73
2022/08/01 04:12:23;;;;;;;3.77;3.33;;;;;;;23.47;47.95;97540.88;5049381;28;20434;-73
2022/08/01 04:14:49;;;;;;;4.23;2.97;;;;;;;23.39;48.06;97554.56;5033150;28;20265;-73
2022/08/01 04:17:17;;;;;;;3.73;2.87;;;;;;;23.40;48.23;97550.84;5044691;28;20195;-74
2022/08/01 04:19:43;;;;;;;3.77;2.80;;;;;;;23.39;48.30;97546.53;5044946;28;20649;-73
2022/08/01 04:22:11;;;;;;;3.20;2.90;;;;;;;23.40;48.59;97550.84;5041288;28;20463;-73
2022/08/01 04:24:37;;;;;;;2.77;2.57;;;;;;;23.41;48.64;97549.81;5034166;28;20422;-74
2022/08/01 04:27:06;;;;;;;2.70;2.43;;;;;;;23.42;48.55;97553.28;5043307;28;20434;-73
2022/08/01 04:29:32;;;;;;;2.80;2.60;;;;;;;23.40;49.00;97558.88;5037165;28;20647;-73
2022/08/01 04:32:00;;;;;;;2.50;2.30;;;;;;;23.43;48.97;97558.44;5039006;28;20442;-74
2022/08/01 04:34:27;;;;;;;3.43;2.50;;;;;;;23.47;48.71;97562.25;5045210;28;20421;-74
2022/08/01 04:36:55;;;;;;;3.00;2.50;;;;;;;23.44;49.04;97562.69;5042805;28;20421;-73
2022/08/01 04:39:23;;;;;;;5.23;3.27;;;;;;;23.45;49.58;97575.03;5043308;28;20426;-74
2022/08/01 04:41:50;;;;;;;6.43;2.90;;;;;;;23.44;49.65;97568.06;5036005;28;20457;-73
2022/08/01 04:44:16;;;;;;;4.80;3.20;;;;;;;23.42;49.71;97569.34;5039478;28;20423;-74
2022/08/01 04:46:42;;;;;;;3.83;3.43;;;;;;;23.31;50.36;97570.94;5026646;28;20540;-73
2022/08/01 04:49:08;;;;;;;4.90;3.90;;;;;;;23.33;50.57;97574.16;5036670;28;20430;-73
2022/08/01 04:51:34;;;;;;;7.80;3.50;;;;;;;23.35;50.76;97572.09;5029188;28;20963;-73
2022/08/01 04:54:00;;;;;;;4.43;3.70;;;;;;;23.33;50.72;97566.16;5041957;28;20425;-73
2022/08/01 04:56:26;;;;;;;9.83;4.00;;;;;;;23.34;50.93;97561.63;5033007;28;20215;-73
2022/08/01 04:59:39;;;;;;;5.87;4.03;;;;;;;23.37;50.72;97556.66;5038277;28;20461;-72
2022/08/01 05:01:37;;;;;;;4.00;3.33;;;;;;;23.41;50.89;97560.50;5042893;28;20215;-73
2022/08/01 05:04:02;;;;;;;9.03;3.80;;;;;;;23.45;51.00;97556.31;5044732;28;20483;-73
2022/08/01 05:06:28;;;;;;;4.07;3.30;;;;;;;23.45;51.16;97555.50;5029946;28;20179;-73
2022/08/01 05:08:53;;;;;;;10.90;3.80;;;;;;;23.49;51.39;97545.19;5046801;28;20193;-73
2022/08/01 05:11:19;;;;;;;3.20;2.90;;;;;;;23.42;51.52;97543.44;5042132;28;20203;-73
2022/08/01 05:13:44;;;;;;;3.60;3.30;;;;;;;23.49;51.37;97540.66;5036258;28;20344;-73
2022/08/01 05:16:10;;;;;;;4.13;3.57;;;;;;;23.53;51.32;97541.81;5029802;28;20180;-73
2022/08/01 05:18:35;;;;;;;3.43;3.13;;;;;;;23.63;51.11;97543.94;5042504;28;20187;-73
2022/08/01 05:21:01;;;;;;;4.07;3.37;;;;;;;23.73;50.68;97544.19;5045150;28;20210;-72
2022/08/01 05:23:27;;;;;;;4.60;3.03;;;;;;;23.86;50.61;97534.34;5041538;28;20688;-74
2022/08/01 05:25:52;;;;;;;2.67;2.17;;;;;;;23.96;50.49;97542.63;5033978;28;20198;-73
2022/08/01 05:28:18;;;;;;;4.10;2.00;;;;;;;24.07;50.04;97544.50;5027754;28;20203;-74
2022/08/01 05:30:43;;;;;;;2.83;1.97;;;;;;;24.20;49.65;97548.00;5020094;28;20668;-72
2022/08/01 05:33:08;;;;;;;4.80;2.20;;;;;;;24.31;49.91;97541.03;5019188;28;20184;-74
2022/08/01 05:35:34;;;;;;;2.70;2.00;;;;;;;24.42;49.47;97550.94;5021474;28;20211;-73
2022/08/01 05:37:59;;;;;;;5.00;2.20;;;;;;;24.47;49.46;97545.69;5012243;28;20200;-74
2022/08/01 05:40:25;;;;;;;2.87;1.80;;;;;;;24.54;49.34;97546.38;5025446;28;20216;-73
2022/08/01 05:42:50;;;;;;;3.17;2.30;;;;;;;24.64;48.86;97551.16;5017697;28;20271;-72
2022/08/01 05:45:16;;;;;;;2.50;2.00;;;;;;;24.75;49.00;97548.72;5013947;28;20239;-72
2022/08/01 05:47:41;;;;;;;2.30;2.10;;;;;;;24.85;48.60;97548.94;5016716;28;20196;-74
2022/08/01 05:50:07;;;;;;;2.00;1.90;;;;;;;24.94;48.84;97552.88;5027534;28;20193;-73
2022/08/01 05:52:33;;;;;;;2.80;1.63;;;;;;;25.00;48.23;97557.28;5021036;28;20184;-73
2022/08/01 05:54:58;;;;;;;2.33;2.13;;;;;;;25.15;48.01;97559.44;5021998;28;20860;-73
2022/08/01 05:57:24;;;;;;;2.37;1.93;;;;;;;25.31;47.79;97570.47;5034388;28;20192;-73
2022/08/01 05:59:49;;;;;;;2.03;1.83;;;;;;;25.44;47.24;97561.38;5029908;28;20187;-73
2022/08/01 06:02:14;;;;;;;4.20;1.87;;;;;;;25.55;47.03;97560.50;5027836;28;20211;-74
2022/08/01 06:04:40;;;;;;;4.40;2.23;;;;;;;25.64;47.09;97563.63;5017579;28;20556;-73
2022/08/01 06:07:05;;;;;;;1.83;1.73;;;;;;;25.70;46.90;97565.31;5022465;28;20191;-72
2022/08/01 06:09:31;;;;;;;4.40;1.90;;;;;;;25.83;46.90;97569.59;5017823;28;20254;-74
2022/08/01 06:11:56;;;;;;;1.97;1.60;;;;;;;25.86;46.83;97566.41;5011075;28;20207;-72
2022/08/01 06:14:22;;;;;;;1.97;1.60;;;;;;;26.01;47.04;97562.34;5025864;28;20702;-73
2022/08/01 06:16:47;;;;;;;1.90;1.70;;;;;;;26.17;46.88;97563.44;5030854;28;20180;-72
2022/08/01 06:19:12;;;;;;;4.23;1.60;;;;;;;26.34;46.73;97563.41;5030545;28;20241;-72
2022/08/01 06:21:38;;;;;;;1.80;1.50;;;;;;;26.49;46.13;97555.59;5035478;28;20211;-72
2022/08/01 06:24:04;;;;;;;4.20;1.50;;;;;;;26.64;45.65;97559.53;5035503;28;20793;-72
2022/08/01 06:26:31;;;;;;;1.60;1.50;;;;;;;26.79;45.41;97554.41;5026631;28;20186;-72
2022/08/01 06:28:56;;;;;;;2.57;1.80;;;;;;;26.94;45.31;97555.66;5039834;28;20437;-72
2022/08/01 06:31:22;;;;;;;5.20;1.43;;;;;;;27.08;44.66;97561.47;5037973;28;20434;-72
2022/08/01 06:33:47;;;;;;;2.93;1.40;;;;;;;27.14;44.50;97561.28;5034852;28;20210;-72
2022/08/01 06:36:12;;;;;;;1.87;1.30;;;;;;;27.16;44.13;97555.66;5034308;28;20190;-73
2022/08/01 06:38:38;;;;;;;2.40;1.67;;;;;;;27.28;44.03;97556.31;5032304;28;20726;-72
2022/08/01 06:41:03;;;;;;;1.43;1.30;;;;;;;27.40;43.76;97558.09;5034144;28;20219;-72
2022/08/01 06:43:29;;;;;;;2.00;1.33;;;;;;;27.58;43.86;97548.88;5033489;28;20266;-72
2022/08/01 06:45:55;;;;;;;1.80;1.50;;;;;;;27.74;43.48;97560.59;5034953;28;20270;-73
2022/08/01 06:48:21;;;;;;;3.53;1.50;;;;;;;27.88;42.88;97560.97;5015974;28;20717;-73
2022/08/01 06:50:46;;;;;;;1.73;1.30;;;;;;;28.01;42.76;97555.16;5015979;28;20446;-73
2022/08/01 06:53:12;;;;;;;1.60;1.50;;;;;;;28.08;42.10;97554.13;5034334;28;20230;-73
2022/08/01 06:55:38;;;;;;;1.70;1.60;;;;;;;28.20;42.49;97550.22;5034417;28;20183;-73
2022/08/01 06:58:04;;;;;;;2.60;1.53;;;;;;;28.32;42.13;97550.03;5034030;28;20191;-73
2022/08/01 07:00:29;;;;;;;2.80;1.33;;;;;;;28.44;41.83;97554.41;5034158;28;20470;-73
2022/08/01 07:02:56;;;;;;;2.30;1.47;;;;;;;28.45;40.97;97556.03;5034020;28;20246;-72
2022/08/01 07:05:22;;;;;;;1.73;1.13;;;;;;;28.38;40.93;97567.06;5037874;28;20183;-72
2022/08/01 07:07:48;;;;;;;1.80;1.40;;;;;;;28.31;40.67;97567.28;5033091;28;20504;-73
2022/08/01 07:10:13;;;;;;;2.40;1.60;;;;;;;28.33;40.86;97562.44;5034648;28;20529;-74
2022/08/01 07:12:40;;;;;;;4.33;3.20;;;;;;;28.32;40.88;97563.50;5038898;28;20194;-73
2022/08/01 07:15:07;;;;;;;3.63;1.60;;;;;;;28.31;40.96;97566.44;5021742;28;20274;-72
2022/08/01 07:17:36;;;;;;;2.07;1.70;;;;;;;28.31;40.94;97563.75;5035004;28;20422;-73
2022/08/01 07:20:02;;;;;;;2.37;1.70;;;;;;;28.40;40.81;97564.91;5036250;28;20441;-73
2022/08/01 07:22:27;;;;;;;5.93;1.60;;;;;;;28.52;40.90;97562.00;5030023;28;20461;-74
2022/08/01 07:24:53;;;;;;;2.93;2.23;;;;;;;28.65;40.53;97556.16;5021888;28;20256;-74
2022/08/01 07:27:18;;;;;;;1.70;1.60;;;;;;;28.83;40.19;97559.50;5019830;28;20192;-73
2022/08/01 07:29:44;;;;;;;1.57;1.47;;;;;;;28.88;39.38;97559.53;5022710;28;20630;-75
2022/08/01 07:32:09;;;;;;;1.93;1.60;;;;;;;28.82;39.70;97560.59;5021378;28;20200;-73
2022/08/01 07:34:35;;;;;;;1.90;1.80;;;;;;;28.74;39.54;97555.66;5023066;28;20187;-73
2022/08/01 07:37:00;;;;;;;2.07;1.50;;;;;;;28.54;39.99;97557.16;5022864;28;20638;-73
2022/08/01 07:39:25;;;;;;;9.93;1.90;;;;;;;28.40;40.35;97559.53;5020099;28;20271;-73
2022/08/01 07:41:51;;;;;;;1.60;1.50;;;;;;;28.24;40.33;97555.88;5018184;28;20281;-73
2022/08/01 07:44:16;;;;;;;4.03;2.13;;;;;;;28.04;41.14;97560.03;5025337;28;20557;-74
2022/08/01 07:46:42;;;;;;;3.20;1.87;;;;;;;28.22;40.52;97565.31;5023494;28;20179;-73
2022/08/01 07:49:07;;;;;;;3.07;1.80;;;;;;;28.18;40.37;97557.72;5019748;28;20268;-74
2022/08/01 07:51:33;;;;;;;2.30;1.70;;;;;;;28.17;40.32;97552.63;5025760;28;20713;-74
2022/08/01 07:53:58;;;;;;;6.07;1.80;;;;;;;28.25;40.47;97557.50;5022074;28;20533;-74
2022/08/01 07:56:25;;;;;;;2.60;2.03;;;;;;;28.46;40.64;97557.66;5026416;28;20191;-73
2022/08/01 07:58:50;;;;;;;2.10;1.70;;;;;;;28.59;40.26;97551.81;5024143;28;20230;-73
2022/08/01 08:01:16;;;;;;;2.80;2.13;;;;;;;28.87;39.70;97549.81;5025664;28;20978;-73
2022/08/01 08:03:41;;;;;;;2.30;2.10;;;;;;;28.96;39.47;97545.56;5027042;28;20179;-72
2022/08/01 08:06:07;;;;;;;1.93;1.83;;;;;;;29.19;39.35;97546.16;5030324;28;20243;-70
2022/08/01 08:08:34;;;;;;;2.70;1.93;;;;;;;29.40;39.00;97548.94;5024825;28;20552;-68
2022/08/01 08:11:00;;;;;;;2.50;2.20;;;;;;;29.50;38.60;97546.25;5022293;28;20200;-70
2022/08/01 08:13:25;;;;;;;2.43;1.73;;;;;;;29.61;38.64;97549.78;5027350;28;20489;-69
2022/08/01 08:15:51;;;;;;;2.90;2.20;;;;;;;29.65;37.82;97548.19;5027343;28;20183;-69
2022/08/01 08:18:16;;;;;;;3.97;2.40;;;;;;;29.71;37.83;97549.00;5031458;28;20207;-69
2022/08/01 08:20:42;;;;;;;2.50;1.90;;;;;;;29.82;37.81;97539.81;5033809;28;20203;-70
2022/08/01 08:24:19;;;;;;;2.63;2.10;;;;;;;30.06;37.73;97539.31;5032320;28;20182;-68
2022/08/01 08:25:52;;;;;;;1.90;1.80;;;;;;;30.27;36.96;97539.25;5027461;28;20187;-69
2022/08/01 08:28:18;;;;;;;2.53;1.87;;;;;;;30.34;37.28;97537.09;5014301;28;20426;-70
2022/08/01 08:30:43;;;;;;;2.37;2.10;;;;;;;30.30;37.05;97544.13;5024886;28;20764;-68
2022/08/01 08:33:09;;;;;;;1.90;1.80;;;;;;;30.23;37.41;97540.91;5032610;28;20180;-69
2022/08/01 08:35:34;;;;;;;3.07;2.40;;;;;;;30.13;37.33;97542.53;5028404;28;20186;-71
2022/08/01 08:38:00;;;;;;;4.50;2.77;;;;;;;30.05;37.18;97543.06;5026665;28;20567;-69
2022/08/01 08:40:29;;;;;;;2.40;2.30;;;;;;;30.07;37.59;97540.91;5030827;28;20199;-68
2022/08/01 08:42:55;;;;;;;2.87;2.60;;;;;;;30.06;37.07;97544.69;5018024;28;20230;-68
2022/08/01 08:45:21;;;;;;;2.50;2.30;;;;;;;30.17;36.76;97538.19;5014122;28;20426;-69
2022/08/01 08:47:48;;;;;;;3.30;2.53;;;;;;;30.32;36.85;97533.88;5032070;28;20423;-67
2022/08/01 08:50:13;;;;;;;4.53;2.60;;;;;;;30.48;37.17;97540.03;5031894;28;20179;-68
2022/08/01 08:52:39;;;;;;;2.87;2.57;;;;;;;30.57;36.90;97543.03;5030935;28;20418;-70
2022/08/01 08:55:05;;;;;;;2.80;2.60;;;;;;;30.75;36.47;97533.50;5030576;28;20253;-69
2022/08/01 08:57:31;;;;;;;3.07;2.77;;;;;;;30.97;36.39;97541.28;5032019;28;20184;-69
2022/08/01 08:59:57;;;;;;;2.30;2.20;;;;;;;31.16;35.16;97533.38;5031779;28;20771;-68
2022/08/01 09:02:23;;;;;;;3.37;2.87;;;;;;;31.40;34.73;97538.88;5030745;28;20223;-68
2022/08/01 09:04:50;;;;;;;2.73;2.53;;;;;;;31.46;34.47;97530.75;5033023;28;20419;-69
2022/08/01 09:07:15;;;;;;;3.37;3.13;;;;;;;31.46;34.39;97528.84;5030275;28;20188;-69
2022/08/01 09:09:41;;;;;;;3.60;2.63;;;;;;;31.64;34.41;97540.91;5031783;28;20414;-68
2022/08/01 09:12:06;;;;;;;3.00;2.80;;;;;;;31.60;34.87;97547.16;5035602;28;20268;-70
2022/08/01 09:14:32;;;;;;;4.40;2.83;;;;;;;31.44;34.59;97541.88;5023650;28;20176;-68
2022/08/01 09:17:03;;;;;;;3.67;3.37;;;;;;;31.32;34.97;97542.19;5031597;28;20538;-69
2022/08/01 09:19:38;;;;;;;4.97;4.30;;;;;;;31.27;35.03;97536.81;5031543;28;20202;-70
2022/08/01 09:22:06;;;;;;;4.43;4.03;;;;;;;31.30;34.59;97538.97;5032311;28;20523;-70
2022/08/01 09:24:32;;;;;;;4.13;3.73;;;;;;;31.58;34.73;97546.63;5030353;28;20421;-69
2022/08/01 09:26:59;;;;;;;3.63;3.20;;;;;;;31.49;34.63;97543.72;5029572;28;20425;-68
2022/08/01 09:29:28;;;;;;;3.70;3.40;;;;;;;31.70;34.37;97541.69;5032211;28;20518;-70
2022/08/01 09:31:55;;;;;;;5.67;3.07;;;;;;;31.80;33.81;97541.66;5037567;28;20453;-69
2022/08/01 09:34:28;;;;;;;5.60;3.20;;;;;;;31.80;34.08;97554.38;5032438;28;20762;-68
2022/08/01 09:37:01;;;;;;;4.80;4.40;;;;;;;31.83;34.31;97551.09;5023779;28;20439;-70
2022/08/01 09:39:37;;;;;;;3.97;3.67;;;;;;;31.89;33.73;97544.53;5031588;28;20453;-68
2022/08/01 09:42:20;;;;;;;4.63;3.97;;;;;;;31.99;33.58;97544.47;5036310;28;20453;-69
2022/08/01 09:44:45;;;;;;;4.17;3.77;;;;;;;31.96;33.30;97547.75;5026130;28;20454;-69
2022/08/01 09:47:12;;;;;;;7.57;3.70;;;;;;;32.01;33.24;97544.97;5013975;28;20518;-71
2022/08/01 09:49:39;;;;;;;4.60;3.77;;;;;;;32.00;33.06;97550.69;5032815;28;20249;-69
2022/08/01 09:52:19;;;;;;;3.40;3.10;;;;;;;32.25;33.10;97546.97;5031444;28;21090;-70
2022/08/01 09:54:52;;;;;;;3.47;3.17;;;;;;;32.22;33.46;97544.81;5027553;28;20426;-68
2022/08/01 09:57:19;;;;;;;3.77;3.47;;;;;;;32.11;33.65;97548.72;5032785;28;20866;-69
2022/08/01 09:59:47;;;;;;;4.30;3.90;;;;;;;32.30;33.45;97541.50;5031185;28;20793;-69
2022/08/01 10:02:26;;;;;;;4.70;4.30;;;;;;;32.50;33.62;97542.38;5031426;28;20536;-71
2022/08/01 10:04:52;;;;;;;6.30;4.60;;;;;;;32.40;33.60;97545.19;5028859;28;20521;-70
2022/08/01 10:07:18;;;;;;;5.30;4.50;;;;;;;32.70;33.30;97548.66;5028463;28;20534;-69
2022/08/01 10:09:45;;;;;;;6.67;4.20;;;;;;;32.85;33.30;97547.72;5030970;28;20206;-69
2022/08/01 10:12:12;;;;;;;6.90;5.00;;;;;;;32.93;32.77;97545.16;5034716;28;20818;-68
2022/08/01 10:14:38;;;;;;;5.20;4.77;;;;;;;33.14;32.39;97534.06;5023051;28;20480;-69
2022/08/01 10:17:07;;;;;;;5.73;4.90;;;;;;;33.43;32.36;97537.75;5030082;28;20433;-71
2022/08/01 10:19:35;;;;;;;4.60;4.07;;;;;;;33.33;31.29;97530.53;5030225;28;20456;-70
2022/08/01 10:22:00;;;;;;;4.67;4.27;;;;;;;33.32;31.71;97537.06;5032548;28;20842;-70
2022/08/01 10:24:28;;;;;;;6.03;3.63;;;;;;;33.19;32.03;97535.91;5032103;28;20430;-69
2022/08/01 10:27:02;;;;;;;5.83;4.30;;;;;;;33.05;32.47;97531.19;5031523;28;20241;-69
2022/08/01 10:29:27;;;;;;;5.47;4.13;;;;;;;32.77;32.81;97535.56;5037492;28;20441;-70
2022/08/01 10:31:53;;;;;;;5.23;3.93;;;;;;;32.48;33.88;97525.59;5030665;28;20442;-68
2022/08/01 10:34:19;;;;;;;4.37;3.70;;;;;;;32.76;33.56;97518.47;5031043;28;20263;-69
2022/08/01 10:36:48;;;;;;;3.70;3.30;;;;;;;33.12;33.02;97514.53;5029508;28;20705;-69
2022/08/01 10:39:13;;;;;;;3.30;3.00;;;;;;;33.43;32.16;97514.13;5029570;28;20506;-68
2022/08/01 10:41:39;;;;;;;3.27;2.97;;;;;;;33.78;30.69;97520.09;5014473;28;20553;-67
2022/08/01 10:44:09;;;;;;;4.80;3.00;;;;;;;33.74;30.87;97521.81;5032480;28;20180;-69
2022/08/01 10:46:39;;;;;;;4.70;3.43;;;;;;;33.56;30.92;97523.44;5023975;28;20263;-69
2022/08/01 10:49:11;;;;;;;5.73;2.90;;;;;;;33.28;31.31;97517.03;5028848;28;20521;-70
2022/08/01 10:51:38;;;;;;;4.00;3.63;;;;;;;33.01;31.92;97515.78;5029208;28;20443;-68
2022/08/01 10:54:06;;;;;;;5.90;4.70;;;;;;;32.75;32.01;97526.91;5029147;28;20423;-68
2022/08/01 10:56:59;;;;;;;3.83;3.23;;;;;;;32.68;32.69;97516.41;5023111;28;20423;-69
2022/08/01 10:59:27;;;;;;;3.20;2.70;;;;;;;32.87;32.24;97512.94;5027368;28;20441;-69
2022/08/01 11:02:01;;;;;;;4.23;3.93;;;;;;;32.73;32.42;97510.13;5036833;28;20822;-69
2022/08/01 11:04:58;;;;;;;2.80;2.50;;;;;;;32.40;33.56;97507.22;5032055;28;20465;-70
2022/08/01 11:07:38;;;;;;;4.23;2.40;;;;;;;32.79;32.78;97495.38;5023605;28;20559;-69
2022/08/01 11:10:19;;;;;;;5.77;3.20;;;;;;;33.15;32.33;97500.34;5028893;28;20430;-69
2022/08/01 11:12:44;;;;;;;4.83;2.90;;;;;;;33.33;32.13;97500.66;5037531;28;20956;-69
2022/08/01 11:15:10;;;;;;;2.90;2.70;;;;;;;33.41;31.73;97500.00;5025337;28;20422;-69
2022/08/01 11:17:38;;;;;;;4.00;3.37;;;;;;;33.14;31.60;97493.34;5033349;28;20275;-69
2022/08/01 11:20:17;;;;;;;2.73;2.53;;;;;;;32.90;31.86;97496.88;5035073;28;20214;-68
2022/08/01 11:23:01;;;;;;;5.90;3.23;;;;;;;32.66;31.75;97493.38;5027272;28;20462;-69
2022/08/01 11:25:27;;;;;;;5.17;2.80;;;;;;;32.48;32.37;97493.06;5032780;28;20521;-68
2022/08/01 11:28:14;;;;;;;3.20;2.97;;;;;;;32.14;32.83;97483.88;5034123;28;20426;-68
2022/08/01 11:30:54;;;;;;;3.20;3.00;;;;;;;31.91;33.23;97490.06;5033255;28;20203;-68
2022/08/01 11:33:41;;;;;;;2.83;2.60;;;;;;;31.65;33.94;97485.63;5032806;28;20762;-69
2022/08/01 11:36:09;;;;;;;5.30;4.90;;;;;;;31.50;33.88;97483.06;5029628;28;20419;-68
2022/08/01 11:38:35;;;;;;;3.70;3.23;;;;;;;31.36;33.62;97478.31;5031689;28;20438;-68